createdAt,value
2022-11-25T00:02:15.330Z,94.70
2022-11-25T00:04:45.228Z,89.40
2022-11-25T00:07:15.085Z,91.07
2022-11-25T00:09:44.953Z,98.35
2022-11-25T00:12:14.794Z,95.22
2022-11-25T00:14:47.209Z,86.82
2022-11-25T00:17:17.052Z,110.63
2022-11-25T00:19:48.942Z,90.13
2022-11-25T00:22:19.276Z,91.10
2022-11-25T00:24:49.121Z,81.05
2022-11-25T00:27:18.963Z,101.30
2022-11-25T00:29:51.429Z,87.95
2022-11-25T00:32:22.189Z,86.03
2022-11-25T00:34:52.118Z,89.88
2022-11-25T00:37:21.975Z,88.72
2022-11-25T00:39:51.852Z,85.65
2022-11-25T00:42:34.239Z,90.82
2022-11-25T00:45:08.264Z,84.47
2022-11-25T00:47:38.082Z,88.95
2022-11-25T00:50:10.293Z,89.63
2022-11-25T00:52:40.145Z,97.25
2022-11-25T00:55:11.527Z,85.80
2022-11-25T00:57:41.346Z,88.90
2022-11-25T01:00:16.307Z,87.10
2022-11-25T01:02:46.262Z,95.90
2022-11-25T01:05:16.198Z,83.18
2022-11-25T01:07:46.531Z,78.22
2022-11-25T01:10:16.528Z,86.88
2022-11-25T01:12:49.847Z,88.13
2022-11-25T01:15:22.266Z,76.50
2022-11-25T01:17:52.147Z,82.95
2022-11-25T01:20:21.966Z,74.20
2022-11-25T01:22:51.810Z,74.07
2022-11-25T01:25:21.716Z,71.93
2022-11-25T01:27:51.566Z,72.85
2022-11-25T01:30:23.992Z,75.63
2022-11-25T01:32:53.846Z,75.07
2022-11-25T01:35:23.778Z,78.88
2022-11-25T01:37:53.627Z,83.50
2022-11-25T01:40:23.496Z,73.20
2022-11-25T01:42:53.358Z,83.38
2022-11-25T01:45:37.799Z,72.60
2022-11-25T01:48:15.907Z,80.18
2022-11-25T01:50:46.988Z,88.43
2022-11-25T01:53:19.330Z,84.25
2022-11-25T01:55:54.349Z,90.13
2022-11-25T01:58:29.800Z,89.25
2022-11-25T02:01:02.396Z,99.20
2022-11-25T02:03:37.023Z,105.05
2022-11-25T02:06:12.775Z,113.10
2022-11-25T02:08:44.042Z,94.22
2022-11-25T02:11:14.386Z,115.47
2022-11-25T02:13:44.816Z,101.13
2022-11-25T02:16:17.312Z,110.97
2022-11-25T02:18:47.262Z,110.13
2022-11-25T02:21:21.318Z,93.65
2022-11-25T02:23:57.952Z,125.25
2022-11-25T02:26:30.483Z,114.15
2022-11-25T02:29:00.482Z,95.22
2022-11-25T02:31:30.380Z,117.88
2022-11-25T02:34:00.270Z,110.07
2022-11-25T02:36:30.257Z,115.03
2022-11-25T02:39:02.881Z,113.45
2022-11-25T02:41:38.390Z,111.50
2022-11-25T02:44:09.165Z,127.75
2022-11-25T02:46:39.335Z,162.45
2022-11-25T02:49:10.441Z,151.77
2022-11-25T02:51:43.913Z,155.10
2022-11-25T02:54:15.609Z,117.43
2022-11-25T02:56:48.111Z,167.65
2022-11-25T02:59:18.017Z,99.13
2022-11-25T03:01:47.983Z,128.77
2022-11-25T03:04:17.876Z,118.75
2022-11-25T03:06:47.727Z,148.98
2022-11-25T03:09:17.604Z,101.85
2022-11-25T03:12:02.568Z,170.60
2022-11-25T03:14:32.722Z,104.07
2022-11-25T03:17:02.653Z,165.23
2022-11-25T03:19:32.498Z,125.72
2022-11-25T03:22:02.360Z,115.95
2022-11-25T03:24:32.584Z,119.00
2022-11-25T03:27:05.014Z,97.47
2022-11-25T03:29:35.055Z,84.13
2022-11-25T03:32:09.303Z,98.85
2022-11-25T03:34:39.689Z,87.30
2022-11-25T03:37:10.301Z,104.18
2022-11-25T03:39:40.195Z,92.57
2022-11-25T03:42:12.722Z,97.10
2022-11-25T03:44:42.630Z,93.10
2022-11-25T03:47:12.868Z,89.47
2022-11-25T03:49:42.715Z,92.82
2022-11-25T03:52:12.602Z,104.32
2022-11-25T03:54:42.491Z,98.30
2022-11-25T03:57:15.059Z,90.45
2022-11-25T03:59:44.902Z,103.75
2022-11-25T04:02:14.830Z,93.25
2022-11-25T04:04:44.897Z,80.05
2022-11-25T04:07:14.848Z,84.90
2022-11-25T04:09:44.744Z,86.05
2022-11-25T04:12:29.670Z,77.60
2022-11-25T04:14:59.490Z,108.97
2022-11-25T04:17:29.344Z,89.20
2022-11-25T04:19:59.226Z,95.78
2022-11-25T04:22:29.072Z,103.38
2022-11-25T04:24:58.918Z,107.50
2022-11-25T04:27:31.392Z,94.68
2022-11-25T04:30:01.340Z,120.57
2022-11-25T04:32:31.436Z,82.28
2022-11-25T04:35:01.324Z,121.18
2022-11-25T04:37:31.196Z,106.60
2022-11-25T04:40:01.045Z,99.28
2022-11-25T04:42:39.149Z,114.25
2022-11-25T04:45:33.369Z,108.28
2022-11-25T04:48:03.036Z,118.82
2022-11-25T04:50:32.906Z,92.93
2022-11-25T04:53:02.776Z,96.55
2022-11-25T04:55:32.765Z,120.97
2022-11-25T04:58:05.239Z,91.63
2022-11-25T05:00:32.546Z,100.32
2022-11-25T05:03:02.415Z,99.63
2022-11-25T05:05:32.510Z,79.30
2022-11-25T05:08:02.393Z,90.50
2022-11-25T05:10:32.269Z,93.35
2022-11-25T05:13:04.750Z,89.13
2022-11-25T05:15:34.601Z,94.78
2022-11-25T05:18:04.550Z,95.97
2022-11-25T05:20:34.377Z,82.88
2022-11-25T05:23:04.288Z,74.80
2022-11-25T05:25:34.109Z,90.65
2022-11-25T05:28:07.042Z,83.82
2022-11-25T05:30:36.952Z,86.10
2022-11-25T05:33:06.808Z,76.35
2022-11-25T05:35:36.637Z,75.18
2022-11-25T05:38:06.484Z,63.15
2022-11-25T05:40:36.332Z,80.80
2022-11-25T05:43:08.885Z,71.20
2022-11-25T05:45:41.682Z,68.65
2022-11-25T05:48:11.622Z,68.25
2022-11-25T05:50:42.517Z,67.85
2022-11-25T05:53:12.385Z,69.80
2022-11-25T05:55:42.232Z,67.97
2022-11-25T05:58:14.679Z,64.55
2022-11-25T06:00:46.457Z,72.82
2022-11-25T06:03:16.423Z,68.47
2022-11-25T06:05:46.627Z,65.32
2022-11-25T06:08:16.498Z,57.17
2022-11-25T06:10:46.362Z,62.97
2022-11-25T06:13:18.884Z,68.07
2022-11-25T06:15:49.828Z,59.60
2022-11-25T06:18:21.159Z,62.08
2022-11-25T06:21:00.260Z,54.00
2022-11-25T06:23:30.172Z,60.38
2022-11-25T06:26:09.677Z,57.78
2022-11-25T06:28:42.441Z,54.85
2022-11-25T06:31:15.046Z,52.78
2022-11-25T06:33:45.530Z,54.50
2022-11-25T06:36:17.387Z,46.55
2022-11-25T06:38:47.450Z,47.55
2022-11-25T06:41:18.102Z,52.15
2022-11-25T06:43:50.688Z,45.67
2022-11-25T06:46:25.107Z,50.95
2022-11-25T06:51:25.329Z,55.47
2022-11-25T06:53:55.702Z,61.28
2022-11-25T06:56:28.833Z,55.50
2022-11-25T06:59:01.242Z,55.60
2022-11-25T07:01:33.053Z,51.97
2022-11-25T07:04:06.961Z,57.78
2022-11-25T07:06:37.286Z,62.43
2022-11-25T07:09:08.501Z,67.07
2022-11-25T07:11:41.062Z,59.00
2022-11-25T07:14:16.022Z,70.68
2022-11-25T07:16:48.014Z,65.15
2022-11-25T07:19:21.277Z,63.95
2022-11-25T07:21:51.366Z,66.30
2022-11-25T07:24:21.532Z,61.40
2022-11-25T07:26:51.356Z,62.63
2022-11-25T07:32:14.635Z,57.60
2022-11-25T07:34:44.636Z,74.70
2022-11-25T07:37:14.516Z,72.05
2022-11-25T07:39:44.381Z,72.32
2022-11-25T07:42:14.196Z,65.20
2022-11-25T07:44:46.595Z,65.32
2022-11-25T07:47:16.402Z,88.07
2022-11-25T07:49:46.230Z,75.95
2022-11-25T07:52:16.068Z,92.90
2022-11-25T07:54:45.951Z,70.15
2022-11-25T07:57:15.822Z,50.90
2022-11-25T07:59:48.280Z,53.70
2022-11-25T08:02:18.183Z,84.18
2022-11-25T08:04:48.075Z,56.90
2022-11-25T08:07:17.942Z,70.15
2022-11-25T08:09:47.907Z,71.75
2022-11-25T08:12:17.802Z,91.60
2022-11-25T08:14:50.248Z,72.18
2022-11-25T08:17:20.130Z,101.97
2022-11-25T08:19:50.014Z,78.80
2022-11-25T08:22:19.864Z,87.90
2022-11-25T08:24:49.693Z,107.18
2022-11-25T08:27:19.563Z,95.90
2022-11-25T08:29:52.156Z,82.68
2022-11-25T08:32:22.004Z,58.83
2022-11-25T08:34:51.899Z,100.97
2022-11-25T08:37:21.807Z,137.73
2022-11-25T08:39:53.730Z,83.95
2022-11-25T08:42:23.920Z,73.85
2022-11-25T08:44:59.426Z,71.32
2022-11-25T08:47:29.267Z,75.85
2022-11-25T08:49:59.126Z,80.57
2022-11-25T08:52:29.556Z,79.65
2022-11-25T08:54:59.466Z,119.65
2022-11-25T08:57:29.291Z,94.07
2022-11-25T09:00:01.700Z,92.70
2022-11-25T09:02:31.595Z,90.10
2022-11-25T09:05:01.559Z,104.50
2022-11-25T09:07:31.461Z,111.97
2022-11-25T09:10:01.406Z,102.75
2022-11-25T09:12:31.311Z,99.38
2022-11-25T09:15:03.799Z,55.05
2022-11-25T09:17:35.454Z,62.53
2022-11-25T09:20:05.329Z,80.60
2022-11-25T09:22:35.261Z,47.83
2022-11-25T09:25:05.110Z,69.53
2022-11-25T09:27:37.391Z,57.25
2022-11-25T09:30:11.787Z,57.92
2022-11-25T09:32:41.620Z,54.70
2022-11-25T09:35:12.005Z,53.08
2022-11-25T09:37:41.865Z,63.42
2022-11-25T09:40:21.393Z,52.60
2022-11-25T09:43:18.306Z,58.20
2022-11-25T09:46:11.129Z,52.92
2022-11-25T09:48:56.709Z,54.33
2022-11-25T09:51:34.822Z,51.17
2022-11-25T09:54:16.370Z,60.33
2022-11-25T09:56:51.967Z,66.70
2022-11-25T09:59:25.612Z,38.95
2022-11-25T10:02:03.951Z,67.18
2022-11-25T10:04:40.911Z,51.08
2022-11-25T10:07:21.146Z,42.88
2022-11-25T10:09:51.181Z,43.60
2022-11-25T10:12:27.983Z,42.83
2022-11-25T10:15:02.911Z,45.60
2022-11-25T10:17:49.343Z,47.42
2022-11-25T10:20:24.336Z,39.92
2022-11-25T10:22:58.450Z,44.72
2022-11-25T10:25:32.664Z,61.63
2022-11-25T10:28:05.300Z,46.55
2022-11-25T10:30:40.781Z,49.10
2022-11-25T10:33:21.885Z,53.25
2022-11-25T10:35:57.066Z,80.57
2022-11-25T10:38:33.524Z,67.55
2022-11-25T10:41:06.186Z,74.30
2022-11-25T10:43:37.829Z,45.40
2022-11-25T10:46:19.328Z,50.95
2022-11-25T10:49:02.507Z,51.95
2022-11-25T10:51:41.268Z,62.40
2022-11-25T10:54:27.500Z,50.53
2022-11-25T10:57:00.652Z,54.13
2022-11-25T10:59:34.510Z,46.25
2022-11-25T11:02:26.715Z,71.43
2022-11-25T11:05:05.423Z,41.70
2022-11-25T11:07:39.592Z,43.80
2022-11-25T11:10:24.517Z,51.08
2022-11-25T11:13:00.355Z,57.40
2022-11-25T11:15:33.549Z,79.00
2022-11-25T11:18:24.597Z,72.70
2022-11-25T11:20:59.438Z,58.22
2022-11-25T11:26:04.394Z,56.25
2022-11-25T11:28:43.038Z,51.47
2022-11-25T11:31:23.219Z,55.38
2022-11-25T11:34:03.718Z,55.15
2022-11-25T11:37:01.541Z,109.82
2022-11-25T11:40:00.877Z,66.95
2022-11-25T11:42:43.968Z,52.25
2022-11-25T11:45:34.633Z,46.95
2022-11-25T11:48:23.654Z,42.58
2022-11-25T11:50:58.699Z,41.67
2022-11-25T11:53:39.787Z,37.13
2022-11-25T11:59:29.268Z,45.58
2022-11-25T12:02:19.635Z,37.70
2022-11-25T12:04:59.000Z,47.47
2022-11-25T12:07:37.655Z,48.65
2022-11-25T12:10:25.199Z,38.00
2022-11-25T12:13:00.952Z,40.20
2022-11-25T12:15:42.349Z,45.50
2022-11-25T12:18:27.251Z,42.20
2022-11-25T12:21:05.273Z,60.88
2022-11-25T12:23:47.097Z,65.53
2022-11-25T12:26:27.483Z,46.90
2022-11-25T12:29:02.580Z,57.75
2022-11-25T12:31:40.735Z,54.85
2022-11-25T12:34:16.986Z,48.78
2022-11-25T12:36:49.682Z,44.13
2022-11-25T12:39:28.058Z,46.05
2022-11-25T12:42:04.774Z,43.55
2022-11-25T12:44:40.644Z,43.13
2022-11-25T12:47:14.362Z,32.88
2022-11-25T12:49:48.574Z,48.63
2022-11-25T12:52:45.652Z,56.97
2022-11-25T12:55:21.381Z,74.63
2022-11-25T12:58:28.498Z,46.63
2022-11-25T13:01:39.063Z,52.72
2022-11-25T13:04:41.622Z,43.17
2022-11-25T13:07:34.290Z,43.30
2022-11-25T13:10:24.739Z,75.72
2022-11-25T13:13:24.265Z,63.72
2022-11-25T13:15:57.016Z,61.33
2022-11-25T13:18:30.498Z,60.35
2022-11-25T13:21:08.556Z,50.85
2022-11-25T13:23:56.236Z,53.28
2022-11-25T13:26:51.529Z,42.38
2022-11-25T13:30:06.618Z,66.45
2022-11-25T13:32:43.043Z,66.32
2022-11-25T13:35:56.523Z,66.15
2022-11-25T13:39:00.446Z,50.55
2022-11-25T13:41:43.629Z,62.20
2022-11-25T13:44:28.434Z,56.97
2022-11-25T13:47:02.947Z,64.40
2022-11-25T13:49:39.766Z,66.43
2022-11-25T13:52:40.312Z,58.13
2022-11-25T13:55:35.388Z,63.30
2022-11-25T13:58:23.660Z,52.28
2022-11-25T14:01:29.486Z,61.40
2022-11-25T14:04:07.603Z,62.08
2022-11-25T14:07:07.449Z,75.95
2022-11-25T14:09:52.495Z,70.13
2022-11-25T14:12:40.262Z,71.57
2022-11-25T14:15:37.550Z,70.63
2022-11-25T14:22:00.012Z,64.57
2022-11-25T14:24:38.782Z,66.65
2022-11-25T14:27:18.490Z,69.10
2022-11-25T14:29:54.036Z,69.03
2022-11-25T14:32:31.147Z,72.78
2022-11-25T14:35:07.361Z,65.18
2022-11-25T14:37:46.878Z,70.45
2022-11-25T14:40:22.946Z,65.40
2022-11-25T14:43:00.690Z,62.70
2022-11-25T14:45:34.330Z,64.78
2022-11-25T14:48:16.907Z,77.95
2022-11-25T14:50:58.646Z,67.43
2022-11-25T14:53:31.711Z,72.90
2022-11-25T14:56:03.868Z,56.83
2022-11-25T14:58:34.119Z,54.72
2022-11-25T15:01:09.692Z,62.05
2022-11-25T15:03:39.645Z,69.65
2022-11-25T15:06:14.154Z,54.13
2022-11-25T15:08:49.192Z,48.67
2022-11-25T15:11:22.123Z,52.10
2022-11-25T15:13:57.522Z,53.42
2022-11-25T15:16:35.553Z,52.80
2022-11-25T15:19:08.123Z,56.70
2022-11-25T15:22:07.422Z,51.80
2022-11-25T15:24:36.344Z,59.90
2022-11-25T15:27:06.522Z,47.25
2022-11-25T15:29:45.107Z,53.30
2022-11-25T15:32:19.482Z,72.60
2022-11-25T15:34:50.695Z,82.57
2022-11-25T15:37:20.663Z,62.42
2022-11-25T15:39:53.298Z,62.13
2022-11-25T15:42:28.414Z,67.07
2022-11-25T15:45:07.165Z,54.75
2022-11-25T15:47:38.705Z,57.65
2022-11-25T15:50:21.767Z,54.60
2022-11-25T15:52:55.830Z,49.97
2022-11-25T15:55:34.847Z,51.53
2022-11-25T15:58:09.068Z,62.55
2022-11-25T16:00:41.694Z,57.28
2022-11-25T16:03:23.398Z,66.22
2022-11-25T16:05:58.110Z,51.15
2022-11-25T16:08:37.738Z,69.35
2022-11-25T16:11:19.549Z,60.13
2022-11-25T16:13:50.927Z,48.95
2022-11-25T16:16:30.135Z,42.05
2022-11-25T16:19:23.261Z,58.65
2022-11-25T16:22:02.490Z,68.57
2022-11-25T16:24:41.098Z,50.38
2022-11-25T16:27:23.262Z,51.58
2022-11-25T16:29:57.687Z,53.55
2022-11-25T16:32:29.931Z,54.20
2022-11-25T16:35:05.669Z,48.45
2022-11-25T16:37:35.481Z,41.83
2022-11-25T16:40:05.494Z,51.67
2022-11-25T16:42:37.937Z,36.72
2022-11-25T16:45:23.468Z,46.63
2022-11-25T16:47:54.307Z,43.75
2022-11-25T16:50:25.302Z,43.67
2022-11-25T16:52:55.212Z,49.00
2022-11-25T16:55:25.489Z,37.75
2022-11-25T16:57:57.932Z,39.97
2022-11-25T17:00:28.011Z,42.53
2022-11-25T17:02:57.896Z,37.22
2022-11-25T17:05:30.108Z,42.97
2022-11-25T17:08:00.159Z,47.05
2022-11-25T17:10:30.443Z,38.95
2022-11-25T17:13:04.939Z,39.88
2022-11-25T17:15:38.780Z,42.17
2022-11-25T17:18:10.647Z,43.07
2022-11-25T17:20:40.555Z,51.38
2022-11-25T17:23:15.568Z,59.90
2022-11-25T17:25:48.908Z,50.70
2022-11-25T17:28:24.610Z,53.30
2022-11-25T17:30:55.115Z,54.35
2022-11-25T17:33:25.168Z,57.60
2022-11-25T17:35:54.989Z,56.80
2022-11-25T17:38:24.854Z,68.93
2022-11-25T17:40:55.361Z,62.33
2022-11-25T17:43:33.175Z,71.50
2022-11-25T17:46:04.440Z,68.13
2022-11-25T17:48:34.442Z,52.67
2022-11-25T17:51:07.397Z,57.60
2022-11-25T17:53:38.850Z,57.22
2022-11-25T17:56:22.149Z,52.90
2022-11-25T17:58:55.279Z,53.67
2022-11-25T18:01:25.178Z,54.83
2022-11-25T18:03:55.191Z,54.25
2022-11-25T18:06:25.171Z,48.67
2022-11-25T18:08:55.007Z,46.92
2022-11-25T18:11:25.146Z,50.83
2022-11-25T18:13:58.223Z,56.53
2022-11-25T18:16:29.508Z,55.15
2022-11-25T18:18:59.619Z,58.00
2022-11-25T18:21:29.473Z,48.40
2022-11-25T18:24:00.578Z,64.88
2022-11-25T18:26:30.541Z,49.92
2022-11-25T18:29:04.558Z,57.03
2022-11-25T18:31:34.416Z,55.15
2022-11-25T18:34:04.253Z,55.55
2022-11-25T18:36:34.077Z,52.15
2022-11-25T18:39:03.877Z,49.33
2022-11-25T18:41:33.805Z,49.65
2022-11-25T18:44:08.973Z,46.60
2022-11-25T18:46:40.441Z,55.00
2022-11-25T18:49:15.694Z,58.30
2022-11-25T18:51:46.198Z,46.67
2022-11-25T18:54:16.357Z,50.13
2022-11-25T18:56:53.295Z,44.45
2022-11-25T18:59:30.642Z,45.80
2022-11-25T19:02:00.753Z,44.80
2022-11-25T19:04:31.293Z,46.95
2022-11-25T19:07:01.288Z,55.65
2022-11-25T19:09:31.110Z,48.53
2022-11-25T19:12:00.967Z,46.67
2022-11-25T19:14:36.619Z,55.25
2022-11-25T19:17:14.342Z,56.55
2022-11-25T19:19:46.626Z,51.20
2022-11-25T19:22:18.904Z,44.80
2022-11-25T19:24:48.986Z,48.08
2022-11-25T19:27:23.483Z,49.88
2022-11-25T19:29:56.078Z,50.30
2022-11-25T19:32:29.635Z,48.15
2022-11-25T19:35:04.262Z,52.08
2022-11-25T19:37:34.214Z,52.28
2022-11-25T19:40:07.659Z,47.05
2022-11-25T19:42:37.502Z,48.47
2022-11-25T19:45:13.033Z,46.47
2022-11-25T19:47:43.132Z,47.97
2022-11-25T19:50:21.559Z,45.67
2022-11-25T19:52:51.554Z,44.38
2022-11-25T19:55:24.190Z,49.13
2022-11-25T19:57:55.570Z,46.35
2022-11-25T20:00:28.980Z,45.20
2022-11-25T20:02:59.153Z,47.13
2022-11-25T20:05:34.323Z,48.53
2022-11-25T20:08:04.846Z,44.35
2022-11-25T20:10:35.397Z,46.15
2022-11-25T20:13:05.261Z,49.65
2022-11-25T20:15:39.136Z,41.97
2022-11-25T20:18:12.608Z,42.60
2022-11-25T20:20:45.692Z,42.75
2022-11-25T20:23:23.827Z,48.47
2022-11-25T20:25:57.248Z,42.72
2022-11-25T20:28:31.508Z,40.95
2022-11-25T20:31:06.158Z,50.88
2022-11-25T20:33:36.023Z,45.60
2022-11-25T20:36:10.381Z,42.63
2022-11-25T20:38:46.386Z,46.20
2022-11-25T20:41:17.299Z,49.90
2022-11-25T20:43:51.170Z,46.08
2022-11-25T20:46:27.098Z,43.40
2022-11-25T20:48:59.802Z,43.03
2022-11-25T20:51:30.021Z,44.15
2022-11-25T20:54:03.357Z,44.05
2022-11-25T20:56:34.658Z,46.40
2022-11-25T20:59:04.486Z,43.28
2022-11-25T21:01:36.972Z,41.38
2022-11-25T21:04:07.550Z,48.35
2022-11-25T21:06:41.089Z,43.58
2022-11-25T21:09:20.354Z,51.60
2022-11-25T21:11:50.701Z,47.55
2022-11-25T21:14:22.544Z,45.42
2022-11-25T21:16:55.134Z,44.72
2022-11-25T21:19:24.963Z,41.00
2022-11-25T21:21:55.037Z,40.17
2022-11-25T21:24:33.453Z,43.08
2022-11-25T21:27:08.751Z,44.85
2022-11-25T21:29:42.683Z,36.58
2022-11-25T21:32:23.484Z,36.83
2022-11-25T21:34:53.958Z,39.08
2022-11-25T21:37:32.530Z,38.92
2022-11-25T21:40:03.066Z,43.95
2022-11-25T21:42:34.174Z,38.40
2022-11-25T21:45:04.503Z,39.83
2022-11-25T21:47:36.926Z,47.33
2022-11-25T21:50:16.646Z,41.45
2022-11-25T21:52:46.543Z,45.05
2022-11-25T21:55:17.481Z,45.00
2022-11-25T21:57:47.914Z,43.63
2022-11-25T22:00:25.902Z,40.28
2022-11-25T22:02:58.400Z,38.60
2022-11-25T22:05:29.746Z,46.50
2022-11-25T22:07:59.779Z,53.78
2022-11-25T22:10:29.700Z,61.28
2022-11-25T22:12:59.541Z,69.72
2022-11-25T22:15:29.403Z,79.68
2022-11-25T22:18:01.962Z,67.95
2022-11-25T22:20:36.195Z,51.05
2022-11-25T22:23:14.392Z,55.25
2022-11-25T22:25:44.316Z,55.45
2022-11-25T22:28:17.306Z,57.65
2022-11-25T22:30:52.538Z,50.72
2022-11-25T22:33:32.767Z,40.58
2022-11-25T22:36:02.918Z,38.85
2022-11-25T22:38:33.590Z,42.60
2022-11-25T22:41:06.466Z,37.60
2022-11-25T22:43:41.403Z,39.17
2022-11-25T22:46:13.225Z,42.65
2022-11-25T22:48:45.746Z,43.80
2022-11-25T22:51:19.571Z,34.95
2022-11-25T22:53:49.514Z,41.88
2022-11-25T22:56:21.992Z,33.38
2022-11-25T22:58:52.414Z,42.28
2022-11-25T23:01:22.647Z,35.00
2022-11-25T23:03:55.121Z,37.75
2022-11-25T23:06:24.970Z,38.95
2022-11-25T23:08:54.806Z,35.50
2022-11-25T23:11:24.638Z,35.70
2022-11-25T23:13:54.429Z,39.60
2022-11-25T23:16:24.363Z,34.95
2022-11-25T23:18:56.871Z,41.00
2022-11-25T23:21:29.277Z,38.30
2022-11-25T23:23:59.620Z,43.40
2022-11-25T23:26:34.981Z,37.35
2022-11-25T23:29:05.558Z,37.28
2022-11-25T23:31:37.415Z,33.72
2022-11-25T23:34:10.931Z,33.00
2022-11-25T23:36:47.354Z,43.60
2022-11-25T23:39:24.166Z,40.72
2022-11-25T23:41:54.526Z,31.17
2022-11-25T23:44:27.949Z,40.67
2022-11-25T23:47:02.996Z,42.08
2022-11-25T23:49:40.364Z,36.80
2022-11-25T23:52:15.724Z,33.13
2022-11-25T23:54:48.249Z,35.17
2022-11-25T23:57:19.283Z,37.08
2022-11-25T23:59:50.526Z,36.25
